createdAt,value
2019-01-23T00:00:32.489Z,85.91
2019-01-23T00:01:32.488Z,84.80
2019-01-23T00:02:32.470Z,84.91
2019-01-23T00:03:32.490Z,86.06
2019-01-23T00:04:32.450Z,85.74
2019-01-23T00:05:32.445Z,84.59
2019-01-23T00:06:32.428Z,85.53
2019-01-23T00:07:32.417Z,85.74
2019-01-23T00:08:32.432Z,86.27
2019-01-23T00:09:32.392Z,84.59
2019-01-23T00:10:32.384Z,85.49
2019-01-23T00:11:32.394Z,85.08
2019-01-23T00:12:32.371Z,84.76
2019-01-23T00:13:32.381Z,83.71
2019-01-23T00:14:32.338Z,83.81
2019-01-23T00:15:32.331Z,84.86
2019-01-23T00:16:32.320Z,83.78
2019-01-23T00:17:32.323Z,83.67
2019-01-23T00:18:32.333Z,82.98
2019-01-23T00:19:32.284Z,82.81
2019-01-23T00:20:32.275Z,84.03
2019-01-23T00:21:32.262Z,85.03
2019-01-23T00:22:32.285Z,83.47
2019-01-23T00:23:32.275Z,83.29
2019-01-23T00:24:32.229Z,83.12
2019-01-23T00:25:32.219Z,84.23
2019-01-23T00:26:32.208Z,83.64
2019-01-23T00:27:32.200Z,83.08
2019-01-23T00:28:32.242Z,82.91
2019-01-23T00:29:32.181Z,84.48
2019-01-23T00:30:32.167Z,83.44
2019-01-23T00:31:32.153Z,83.79
2019-01-23T00:32:32.143Z,83.68
2019-01-23T00:33:32.171Z,84.84
2019-01-23T00:34:32.161Z,85.01
2019-01-23T00:35:32.111Z,84.17
2019-01-23T00:36:32.110Z,83.61
2019-01-23T00:37:32.090Z,84.44
2019-01-23T00:38:32.079Z,82.76
2019-01-23T00:39:32.100Z,83.12
2019-01-23T00:40:32.066Z,82.81
2019-01-23T00:41:32.047Z,83.86
2019-01-23T00:42:32.038Z,83.01
2019-01-23T00:43:32.024Z,83.40
2019-01-23T00:44:32.043Z,82.87
2019-01-23T00:45:32.004Z,83.50
2019-01-23T00:46:32.011Z,81.65
2019-01-23T00:47:32.000Z,81.96
2019-01-23T00:48:31.971Z,83.33
2019-01-23T00:49:31.988Z,82.81
2019-01-23T00:50:31.949Z,83.54
2019-01-23T00:51:31.939Z,83.22
2019-01-23T00:52:31.970Z,82.95
2019-01-23T00:53:31.920Z,83.26
2019-01-23T00:54:31.936Z,83.01
2019-01-23T00:55:31.896Z,83.54
2019-01-23T00:56:31.905Z,83.54
2019-01-23T00:57:31.873Z,83.01
2019-01-23T00:58:31.881Z,83.54
2019-01-23T00:59:31.882Z,83.86
2019-01-23T01:00:31.844Z,82.95
2019-01-23T01:01:31.830Z,84.69
2019-01-23T01:02:31.821Z,84.91
2019-01-23T01:03:31.809Z,82.07
2019-01-23T01:04:32.127Z,82.81
2019-01-23T01:05:31.787Z,83.33
2019-01-23T01:06:31.776Z,84.17
2019-01-23T01:07:31.769Z,84.13
2019-01-23T01:08:31.755Z,82.56
2019-01-23T01:09:31.744Z,81.61
2019-01-23T01:10:31.772Z,82.66
2019-01-23T01:11:31.723Z,83.18
2019-01-23T01:12:31.713Z,81.65
2019-01-23T01:13:31.699Z,83.05
2019-01-23T01:14:31.692Z,84.69
2019-01-23T01:15:31.710Z,85.08
2019-01-23T01:16:31.681Z,83.71
2019-01-23T01:17:31.657Z,82.81
2019-01-23T01:18:31.646Z,82.81
2019-01-23T01:19:31.634Z,82.91
2019-01-23T01:20:31.660Z,82.81
2019-01-23T01:21:31.613Z,83.26
2019-01-23T01:22:31.639Z,84.27
2019-01-23T01:23:31.593Z,83.86
2019-01-23T01:24:31.582Z,83.54
2019-01-23T01:25:31.612Z,83.64
2019-01-23T01:26:31.562Z,82.98
2019-01-23T01:27:31.548Z,83.54
2019-01-23T01:28:31.561Z,83.61
2019-01-23T01:29:31.525Z,82.35
2019-01-23T01:30:31.544Z,82.98
2019-01-23T01:31:31.518Z,82.56
2019-01-23T01:32:31.495Z,82.35
2019-01-23T01:33:34.029Z,83.75
2019-01-23T01:34:31.484Z,81.96
2019-01-23T01:35:31.489Z,83.01
2019-01-23T01:36:31.456Z,83.75
2019-01-23T01:37:31.441Z,83.22
2019-01-23T01:38:31.430Z,84.80
2019-01-23T01:39:31.418Z,84.17
2019-01-23T01:40:31.454Z,83.12
2019-01-23T01:41:31.399Z,83.15
2019-01-23T01:42:31.390Z,83.89
2019-01-23T01:43:31.375Z,83.58
2019-01-23T01:44:31.364Z,83.05
2019-01-23T01:45:31.384Z,83.75
2019-01-23T01:46:31.391Z,85.22
2019-01-23T01:47:31.332Z,83.33
2019-01-23T01:48:31.319Z,83.08
2019-01-23T01:49:31.312Z,83.75
2019-01-23T01:50:31.328Z,83.18
2019-01-23T01:51:31.301Z,82.91
2019-01-23T01:52:31.283Z,83.75
2019-01-23T01:53:31.268Z,83.15
2019-01-23T01:54:31.255Z,83.64
2019-01-23T01:55:31.274Z,83.86
2019-01-23T01:56:31.233Z,82.91
2019-01-23T01:57:31.235Z,82.81
2019-01-23T01:58:31.219Z,85.01
2019-01-23T01:59:31.209Z,83.75
2019-01-23T02:00:31.219Z,83.71
2019-01-23T02:01:31.192Z,83.08
2019-01-23T02:02:31.169Z,83.50
2019-01-23T02:03:31.173Z,83.29
2019-01-23T02:04:31.149Z,81.82
2019-01-23T02:05:31.164Z,82.17
2019-01-23T02:06:31.130Z,82.49
2019-01-23T02:07:31.116Z,83.12
2019-01-23T02:08:31.103Z,83.22
2019-01-23T02:09:35.443Z,83.01
2019-01-23T02:10:31.212Z,83.12
2019-01-23T02:11:31.074Z,83.22
2019-01-23T02:12:31.062Z,82.87
2019-01-23T02:13:31.048Z,83.29
2019-01-23T02:14:31.044Z,83.22
2019-01-23T02:15:31.042Z,82.24
2019-01-23T02:16:31.050Z,83.40
2019-01-23T02:17:31.008Z,82.98
2019-01-23T02:18:30.996Z,81.82
2019-01-23T02:19:30.985Z,83.29
2019-01-23T02:20:30.973Z,81.72
2019-01-23T02:21:31.028Z,82.45
2019-01-23T02:22:30.951Z,82.49
2019-01-23T02:23:30.942Z,82.98
2019-01-23T02:24:30.935Z,81.61
2019-01-23T02:25:30.920Z,83.22
2019-01-23T02:26:30.938Z,83.22
2019-01-23T02:27:30.917Z,82.76
2019-01-23T02:28:30.887Z,83.61
2019-01-23T02:29:30.875Z,82.03
2019-01-23T02:30:30.877Z,81.54
2019-01-23T02:31:30.888Z,83.29
2019-01-23T02:32:30.842Z,83.04
2019-01-23T02:33:30.850Z,82.20
2019-01-23T02:34:30.824Z,81.30
2019-01-23T02:35:30.811Z,81.54
2019-01-23T02:36:30.831Z,81.96
2019-01-23T02:37:30.790Z,82.98
2019-01-23T02:38:30.779Z,82.14
2019-01-23T02:39:30.780Z,81.93
2019-01-23T02:40:30.755Z,81.72
2019-01-23T02:41:30.776Z,81.54
2019-01-23T02:42:30.736Z,82.56
2019-01-23T02:43:30.730Z,81.57
2019-01-23T02:44:30.713Z,80.88
2019-01-23T02:45:30.728Z,81.40
2019-01-23T02:46:30.721Z,82.35
2019-01-23T02:47:30.682Z,81.57
2019-01-23T02:48:30.672Z,81.09
2019-01-23T02:49:30.664Z,81.51
2019-01-23T02:50:30.650Z,81.51
2019-01-23T02:51:30.686Z,82.14
2019-01-23T02:52:30.631Z,81.82
2019-01-23T02:53:30.616Z,82.91
2019-01-23T02:54:30.604Z,82.62
2019-01-23T02:55:30.595Z,81.40
2019-01-23T02:56:30.612Z,81.51
2019-01-23T02:57:30.596Z,81.93
2019-01-23T02:58:30.561Z,81.51
2019-01-23T02:59:30.554Z,81.40
2019-01-23T03:00:30.540Z,82.35
2019-01-23T03:01:30.559Z,81.72
2019-01-23T03:02:30.519Z,81.40
2019-01-23T03:03:30.543Z,82.35
2019-01-23T03:04:30.495Z,81.68
2019-01-23T03:05:30.488Z,81.61
2019-01-23T03:06:30.503Z,81.82
2019-01-23T03:07:30.465Z,81.30
2019-01-23T03:08:30.453Z,81.40
2019-01-23T03:09:30.446Z,81.44
2019-01-23T03:10:30.432Z,81.96
2019-01-23T03:11:30.451Z,81.44
2019-01-23T03:12:30.410Z,82.98
2019-01-23T03:13:30.399Z,82.28
2019-01-23T03:14:30.388Z,83.44
2019-01-23T03:15:30.400Z,83.12
2019-01-23T03:16:30.395Z,83.01
2019-01-23T03:17:30.357Z,81.54
2019-01-23T03:18:30.345Z,83.12
2019-01-23T03:19:30.335Z,83.08
2019-01-23T03:20:30.323Z,82.39
2019-01-23T03:21:30.357Z,83.12
2019-01-23T03:22:30.307Z,83.12
2019-01-23T03:23:30.292Z,83.64
2019-01-23T03:24:30.280Z,83.08
2019-01-23T03:25:30.278Z,82.39
2019-01-23T03:26:30.295Z,83.01
2019-01-23T03:27:30.286Z,83.18
2019-01-23T03:28:30.235Z,82.45
2019-01-23T03:29:30.237Z,83.61
2019-01-23T03:30:30.218Z,83.29
2019-01-23T03:31:30.238Z,82.24
2019-01-23T03:32:30.213Z,83.08
2019-01-23T03:33:30.201Z,83.18
2019-01-23T03:34:30.172Z,83.29
2019-01-23T03:35:30.159Z,82.98
2019-01-23T03:36:30.198Z,83.08
2019-01-23T03:37:30.139Z,82.98
2019-01-23T03:38:30.133Z,81.54
2019-01-23T03:39:30.118Z,83.44
2019-01-23T03:40:30.108Z,83.33
2019-01-23T03:41:30.122Z,82.81
2019-01-23T03:42:30.114Z,83.08
2019-01-23T03:43:30.074Z,82.98
2019-01-23T03:44:30.068Z,83.08
2019-01-23T03:45:30.061Z,83.50
2019-01-23T03:46:30.041Z,82.87
2019-01-23T03:47:30.093Z,82.49
2019-01-23T03:48:30.021Z,82.81
2019-01-23T03:49:30.008Z,82.98
2019-01-23T03:50:29.997Z,83.12
2019-01-23T03:51:29.989Z,83.64
2019-01-23T03:52:30.008Z,82.91
2019-01-23T03:53:29.972Z,83.44
2019-01-23T03:54:29.957Z,85.01
2019-01-23T03:55:29.944Z,84.17
2019-01-23T03:56:29.956Z,83.54
2019-01-23T03:57:29.957Z,83.64
2019-01-23T03:58:29.914Z,83.64
2019-01-23T03:59:32.293Z,83.96
2019-01-23T04:00:29.889Z,83.61
2019-01-23T04:01:29.892Z,83.54
2019-01-23T04:02:29.898Z,83.61
2019-01-23T04:03:29.857Z,83.08
2019-01-23T04:04:29.849Z,83.75
2019-01-23T04:05:31.097Z,83.12
2019-01-23T04:06:29.826Z,85.11
2019-01-23T04:07:29.845Z,82.70
2019-01-23T04:08:29.817Z,85.22
2019-01-23T04:09:29.795Z,84.66
2019-01-23T04:10:29.782Z,83.08
2019-01-23T04:11:29.793Z,83.81
2019-01-23T04:12:29.807Z,83.81
2019-01-23T04:13:29.757Z,83.50
2019-01-23T04:14:29.738Z,83.18
2019-01-23T04:15:29.727Z,82.98
2019-01-23T04:16:29.721Z,83.33
2019-01-23T04:17:29.764Z,84.84
2019-01-23T04:18:29.695Z,85.05
2019-01-23T04:19:29.684Z,84.94
2019-01-23T04:20:29.673Z,84.73
2019-01-23T04:21:29.662Z,85.15
2019-01-23T04:22:29.653Z,85.01
2019-01-23T04:23:29.678Z,84.27
2019-01-23T04:24:29.630Z,85.01
2019-01-23T04:25:29.618Z,85.01
2019-01-23T04:26:29.608Z,83.61
2019-01-23T04:27:29.600Z,82.91
2019-01-23T04:28:29.614Z,83.64
2019-01-23T04:29:29.608Z,83.54
2019-01-23T04:30:29.569Z,83.64
2019-01-23T04:31:29.554Z,84.48
2019-01-23T04:32:29.543Z,83.54
2019-01-23T04:33:29.562Z,82.95
2019-01-23T04:34:29.535Z,85.05
2019-01-23T04:35:29.521Z,85.01
2019-01-23T04:36:29.506Z,84.80
2019-01-23T04:37:29.490Z,84.17
2019-01-23T04:38:29.511Z,82.91
2019-01-23T04:39:29.485Z,83.54
2019-01-23T04:40:29.463Z,83.64
2019-01-23T04:41:29.484Z,85.08
2019-01-23T04:42:29.442Z,83.01
2019-01-23T04:43:29.451Z,82.81
2019-01-23T04:44:29.414Z,82.39
2019-01-23T04:45:29.404Z,82.81
2019-01-23T04:46:29.391Z,83.12
2019-01-23T04:47:29.390Z,82.95
2019-01-23T04:48:29.397Z,84.06
2019-01-23T04:49:29.369Z,83.47
2019-01-23T04:50:29.348Z,83.54
2019-01-23T04:51:29.340Z,83.54
2019-01-23T04:52:29.327Z,83.61
2019-01-23T04:53:29.380Z,83.61
2019-01-23T04:54:29.308Z,81.61
2019-01-23T04:55:29.299Z,82.59
2019-01-23T04:56:29.284Z,82.95
2019-01-23T04:57:29.275Z,83.54
2019-01-23T04:58:29.305Z,82.81
2019-01-23T04:59:29.281Z,82.49
2019-01-23T05:00:29.248Z,83.64
2019-01-23T05:01:29.229Z,82.91
2019-01-23T05:02:29.219Z,83.44
2019-01-23T05:03:29.213Z,82.59
2019-01-23T05:04:29.224Z,82.95
2019-01-23T05:05:29.208Z,83.37
2019-01-23T05:06:29.175Z,83.20
2019-01-23T05:07:29.165Z,83.72
2019-01-23T05:08:29.154Z,84.20
2019-01-23T05:09:29.174Z,83.26
2019-01-23T05:10:29.137Z,83.15
2019-01-23T05:11:29.137Z,82.84
2019-01-23T05:12:29.118Z,83.15
2019-01-23T05:13:29.103Z,82.95
2019-01-23T05:14:29.118Z,83.05
2019-01-23T05:15:29.086Z,84.00
2019-01-23T05:16:29.072Z,84.10
2019-01-23T05:17:29.079Z,83.58
2019-01-23T05:18:29.052Z,83.22
2019-01-23T05:19:29.067Z,83.33
2019-01-23T05:20:29.037Z,83.12
2019-01-23T05:21:29.015Z,83.33
2019-01-23T05:22:29.007Z,83.01
2019-01-23T05:23:29.002Z,83.15
2019-01-23T05:24:29.009Z,83.89
2019-01-23T05:25:28.972Z,82.53
2019-01-23T05:26:28.962Z,83.68
2019-01-23T05:27:28.951Z,82.74
2019-01-23T05:28:28.939Z,83.47
2019-01-23T05:29:28.984Z,83.05
2019-01-23T05:30:28.917Z,83.61
2019-01-23T05:31:28.906Z,84.20
2019-01-23T05:32:28.895Z,83.89
2019-01-23T05:33:28.885Z,82.67
2019-01-23T05:34:28.910Z,83.61
2019-01-23T05:35:28.884Z,85.19
2019-01-23T05:36:28.852Z,84.03
2019-01-23T05:37:28.849Z,83.20
2019-01-23T05:38:28.830Z,83.51
2019-01-23T05:39:28.825Z,83.76
2019-01-23T05:40:28.860Z,84.70
2019-01-23T05:41:28.798Z,84.70
2019-01-23T05:42:28.797Z,84.98
2019-01-23T05:43:28.778Z,85.08
2019-01-23T05:44:28.765Z,84.88
2019-01-23T05:45:28.786Z,83.72
2019-01-23T05:46:28.745Z,84.14
2019-01-23T05:47:28.733Z,84.00
2019-01-23T05:48:28.734Z,83.68
2019-01-23T05:49:28.710Z,82.84
2019-01-23T05:50:28.736Z,83.72
2019-01-23T05:51:28.689Z,83.68
2019-01-23T05:52:28.679Z,83.89
2019-01-23T05:53:28.670Z,83.20
2019-01-23T05:54:28.664Z,83.61
2019-01-23T05:55:28.677Z,83.30
2019-01-23T05:56:28.642Z,83.79
2019-01-23T05:57:28.627Z,83.83
2019-01-23T05:58:28.616Z,83.05
2019-01-23T05:59:28.605Z,83.15
2019-01-23T06:00:28.625Z,82.74
2019-01-23T06:01:28.582Z,83.30
2019-01-23T06:02:28.586Z,83.30
2019-01-23T06:03:28.561Z,82.98
2019-01-23T06:04:28.551Z,83.93
2019-01-23T06:05:28.567Z,83.72
2019-01-23T06:06:28.540Z,84.14
2019-01-23T06:07:28.522Z,83.15
2019-01-23T06:08:28.506Z,82.88
2019-01-23T06:09:28.498Z,83.89
2019-01-23T06:10:28.514Z,83.15
2019-01-23T06:11:28.472Z,83.93
2019-01-23T06:12:28.490Z,84.20
2019-01-23T06:13:28.451Z,83.47
2019-01-23T06:14:28.442Z,83.05
2019-01-23T06:15:28.460Z,83.05
2019-01-23T06:16:28.420Z,83.15
2019-01-23T06:17:28.411Z,82.91
2019-01-23T06:18:28.413Z,83.22
2019-01-23T06:19:28.387Z,83.12
2019-01-23T06:20:28.401Z,82.49
2019-01-23T06:21:28.366Z,83.15
2019-01-23T06:22:28.359Z,83.58
2019-01-23T06:23:28.347Z,83.15
2019-01-23T06:24:28.349Z,83.54
2019-01-23T06:25:28.350Z,83.44
2019-01-23T06:26:28.344Z,83.54
2019-01-23T06:27:28.302Z,83.54
2019-01-23T06:28:28.291Z,83.12
2019-01-23T06:29:28.283Z,83.12
2019-01-23T06:30:28.358Z,83.86
2019-01-23T06:31:28.268Z,82.63
2019-01-23T06:32:28.338Z,83.26
2019-01-23T06:33:28.236Z,84.10
2019-01-23T06:34:28.226Z,84.59
2019-01-23T06:35:28.244Z,84.59
2019-01-23T06:36:28.203Z,84.03
2019-01-23T06:37:28.192Z,83.64
2019-01-23T06:38:28.229Z,83.18
2019-01-23T06:39:28.195Z,83.01
2019-01-23T06:40:28.187Z,83.01
2019-01-23T06:41:28.174Z,83.33
2019-01-23T06:42:28.142Z,84.17
2019-01-23T06:43:28.128Z,84.06
2019-01-23T06:44:28.147Z,83.44
2019-01-23T06:45:28.133Z,83.86
2019-01-23T06:46:28.095Z,83.75
2019-01-23T06:47:28.084Z,84.80
2019-01-23T06:48:28.074Z,83.12
2019-01-23T06:49:28.119Z,85.11
2019-01-23T06:50:28.089Z,83.86
2019-01-23T06:51:28.053Z,83.92
2019-01-23T06:52:28.031Z,82.56
2019-01-23T06:53:28.025Z,82.98
2019-01-23T06:54:28.009Z,83.54
2019-01-23T06:55:28.025Z,82.76
2019-01-23T06:56:27.986Z,83.40
2019-01-23T06:57:27.981Z,82.59
2019-01-23T06:58:27.975Z,81.96
2019-01-23T06:59:27.956Z,83.44
2019-01-23T07:00:27.976Z,83.64
2019-01-23T07:01:27.937Z,82.84
2019-01-23T07:02:27.922Z,83.79
2019-01-23T07:03:27.912Z,85.30
2019-01-23T07:04:27.915Z,84.91
2019-01-23T07:05:27.969Z,85.01
2019-01-23T07:06:27.934Z,85.01
2019-01-23T07:07:27.884Z,84.80
2019-01-23T07:08:27.858Z,85.22
2019-01-23T07:09:27.927Z,84.48
2019-01-23T07:10:27.996Z,83.64
2019-01-23T07:11:28.018Z,83.64
2019-01-23T07:12:27.944Z,84.10
2019-01-23T07:13:28.823Z,84.94
2019-01-23T07:14:27.887Z,85.32
2019-01-23T07:15:27.840Z,85.05
2019-01-23T07:16:27.870Z,84.20
2019-01-23T07:17:27.794Z,83.61
2019-01-23T07:18:27.808Z,83.51
2019-01-23T07:19:27.888Z,84.98
2019-01-23T07:20:27.731Z,85.08
2019-01-23T07:21:27.729Z,84.98
2019-01-23T07:22:27.755Z,85.57
2019-01-23T07:23:27.723Z,84.52
2019-01-23T07:24:27.718Z,84.31
2019-01-23T07:25:27.791Z,84.84
2019-01-23T07:26:27.725Z,84.63
2019-01-23T07:27:27.781Z,85.32
2019-01-23T07:28:27.679Z,83.86
2019-01-23T07:29:27.797Z,81.79
2019-01-23T07:30:27.735Z,84.17
2019-01-23T07:31:27.705Z,83.64
2019-01-23T07:32:27.605Z,83.37
2019-01-23T07:33:27.594Z,82.95
2019-01-23T07:34:27.782Z,82.63
2019-01-23T07:35:27.612Z,84.00
2019-01-23T07:36:27.582Z,82.88
2019-01-23T07:37:27.553Z,83.68
2019-01-23T07:38:27.539Z,83.68
2019-01-23T07:39:27.565Z,83.05
2019-01-23T07:40:27.577Z,82.32
2019-01-23T07:41:27.511Z,83.47
2019-01-23T07:42:27.510Z,83.01
2019-01-23T07:43:27.480Z,83.01
2019-01-23T07:44:27.496Z,83.01
2019-01-23T07:45:27.471Z,82.17
2019-01-23T07:46:27.479Z,81.23
2019-01-23T07:47:27.441Z,82.59
2019-01-23T07:48:27.429Z,81.86
2019-01-23T07:49:27.440Z,81.65
2019-01-23T07:50:27.404Z,82.39
2019-01-23T07:51:27.403Z,81.23
2019-01-23T07:52:27.408Z,81.54
2019-01-23T07:53:27.372Z,81.65
2019-01-23T07:54:27.388Z,80.81
2019-01-23T07:55:27.350Z,80.81
2019-01-23T07:56:27.398Z,82.28
2019-01-23T07:57:27.336Z,82.17
2019-01-23T07:58:27.365Z,80.60
2019-01-23T07:59:27.349Z,82.07
2019-01-23T08:00:31.247Z,80.81
2019-01-23T08:01:27.286Z,82.07
2019-01-23T08:02:27.304Z,82.49
2019-01-23T08:03:27.278Z,80.88
2019-01-23T08:04:27.310Z,80.88
2019-01-23T08:05:27.249Z,81.09
2019-01-23T08:06:27.234Z,81.40
2019-01-23T08:07:27.239Z,80.63
2019-01-23T08:08:27.245Z,79.83
2019-01-23T08:09:27.224Z,81.09
2019-01-23T08:10:27.208Z,80.57
2019-01-23T08:11:27.178Z,80.84
2019-01-23T08:12:27.169Z,80.00
2019-01-23T08:13:27.161Z,79.48
2019-01-23T08:14:27.169Z,79.69
2019-01-23T08:15:27.153Z,79.27
2019-01-23T08:16:27.157Z,79.69
2019-01-23T08:17:32.780Z,79.27
2019-01-23T08:18:28.111Z,79.38
2019-01-23T08:19:27.116Z,79.62
2019-01-23T08:20:27.080Z,80.04
2019-01-23T08:21:27.076Z,80.74
2019-01-23T08:22:27.097Z,80.00
2019-01-23T08:23:27.048Z,80.00
2019-01-23T08:24:27.063Z,79.55
2019-01-23T08:25:27.029Z,79.86
2019-01-23T08:26:27.019Z,79.23
2019-01-23T08:27:27.040Z,79.20
2019-01-23T08:28:27.002Z,79.51
2019-01-23T08:29:27.007Z,78.25
2019-01-23T08:30:26.972Z,77.66
2019-01-23T08:31:26.970Z,78.92
2019-01-23T08:32:26.951Z,79.02
2019-01-23T08:33:26.940Z,79.20
2019-01-23T08:34:26.979Z,78.57
2019-01-23T08:35:26.922Z,78.08
2019-01-23T08:36:26.910Z,77.52
2019-01-23T08:37:26.899Z,77.20
2019-01-23T08:38:26.896Z,77.87
2019-01-23T08:39:26.903Z,78.60
2019-01-23T08:40:26.882Z,77.34
2019-01-23T08:41:26.859Z,77.56
2019-01-23T08:42:26.887Z,77.76
2019-01-23T08:43:26.842Z,77.97
2019-01-23T08:44:26.850Z,78.60
2019-01-23T08:45:27.039Z,78.99
2019-01-23T08:46:26.803Z,79.61
2019-01-23T08:47:26.792Z,78.99
2019-01-23T08:48:26.801Z,77.00
2019-01-23T08:49:26.796Z,75.67
2019-01-23T08:50:26.760Z,78.81
2019-01-23T08:51:26.753Z,79.34
2019-01-23T08:52:26.740Z,78.50
2019-01-23T08:53:26.728Z,78.33
2019-01-23T08:54:26.731Z,79.55
2019-01-23T08:55:26.732Z,79.44
2019-01-23T08:56:26.745Z,79.65
2019-01-23T08:57:26.686Z,78.78
2019-01-23T08:58:26.679Z,78.39
2019-01-23T08:59:26.750Z,77.83
2019-01-23T09:00:26.709Z,78.67
2019-01-23T09:01:26.644Z,78.46
2019-01-23T09:02:26.635Z,78.46
2019-01-23T09:03:26.633Z,77.80
2019-01-23T09:04:26.678Z,76.37
2019-01-23T09:05:26.626Z,77.24
2019-01-23T09:06:26.617Z,77.52
2019-01-23T09:07:26.583Z,77.03
2019-01-23T09:08:26.574Z,77.03
2019-01-23T09:09:26.563Z,77.52
2019-01-23T09:10:26.574Z,77.52
2019-01-23T09:11:26.542Z,76.65
2019-01-23T09:12:26.554Z,77.59
2019-01-23T09:13:26.537Z,77.48
2019-01-23T09:14:26.511Z,76.40
2019-01-23T09:15:26.544Z,74.66
2019-01-23T09:16:26.496Z,75.08
2019-01-23T09:17:26.477Z,75.53
2019-01-23T09:18:26.491Z,75.43
2019-01-23T09:19:26.452Z,75.29
2019-01-23T09:20:26.475Z,76.09
2019-01-23T09:21:26.450Z,74.94
2019-01-23T09:22:26.452Z,74.13
2019-01-23T09:23:26.427Z,75.29
2019-01-23T09:24:26.402Z,74.24
2019-01-23T09:25:26.416Z,76.30
2019-01-23T09:26:26.381Z,74.38
2019-01-23T09:27:26.365Z,73.99
2019-01-23T09:28:26.373Z,75.25
2019-01-23T09:29:26.353Z,74.59
2019-01-23T09:30:26.380Z,74.90
2019-01-23T09:31:26.337Z,73.65
2019-01-23T09:32:26.324Z,72.92
2019-01-23T09:33:26.298Z,72.81
2019-01-23T09:34:26.287Z,72.74
2019-01-23T09:35:26.298Z,72.77
2019-01-23T09:36:26.263Z,73.89
2019-01-23T09:37:26.288Z,72.77
2019-01-23T09:38:26.243Z,74.52
2019-01-23T09:39:26.265Z,74.07
2019-01-23T09:40:26.271Z,72.81
2019-01-23T09:41:26.429Z,74.38
2019-01-23T09:42:26.220Z,73.13
2019-01-23T09:43:26.199Z,73.79
2019-01-23T09:44:26.178Z,72.33
2019-01-23T09:45:26.192Z,72.25
2019-01-23T09:46:26.155Z,71.56
2019-01-23T09:47:26.146Z,72.32
2019-01-23T09:48:26.134Z,74.10
2019-01-23T09:49:26.146Z,73.75
2019-01-23T09:50:26.137Z,73.05
2019-01-23T09:51:26.129Z,74.52
2019-01-23T09:52:26.093Z,73.75
2019-01-23T09:53:26.080Z,73.23
2019-01-23T09:54:26.071Z,73.69
2019-01-23T09:55:26.094Z,71.73
2019-01-23T09:56:26.049Z,72.33
2019-01-23T09:57:26.042Z,70.86
2019-01-23T09:58:26.027Z,71.80
2019-01-23T09:59:26.015Z,70.55
2019-01-23T10:00:26.030Z,70.68
2019-01-23T10:01:26.003Z,70.58
2019-01-23T10:02:25.984Z,72.81
2019-01-23T10:03:25.975Z,71.56
2019-01-23T10:04:25.973Z,72.19
2019-01-23T10:05:25.975Z,72.50
2019-01-23T10:06:25.940Z,72.05
2019-01-23T10:07:25.945Z,72.92
2019-01-23T10:08:25.968Z,72.64
2019-01-23T10:09:25.925Z,71.36
2019-01-23T10:10:25.923Z,70.55
2019-01-23T10:11:25.945Z,69.92
2019-01-23T10:12:25.876Z,69.92
2019-01-23T10:13:25.928Z,71.91
2019-01-23T10:14:25.935Z,70.20
2019-01-23T10:15:25.918Z,70.00
2019-01-23T10:16:25.836Z,69.61
2019-01-23T10:17:25.851Z,70.79
2019-01-23T10:18:25.826Z,71.56
2019-01-23T10:19:25.802Z,70.90
2019-01-23T10:20:25.893Z,69.93
2019-01-23T10:21:25.792Z,68.26
2019-01-23T10:22:25.807Z,68.89
2019-01-23T10:23:25.799Z,68.40
2019-01-23T10:24:25.776Z,68.22
2019-01-23T10:25:25.819Z,69.86
2019-01-23T10:26:25.737Z,69.54
2019-01-23T10:27:25.744Z,69.13
2019-01-23T10:28:26.851Z,70.59
2019-01-23T10:29:25.707Z,69.65
2019-01-23T10:30:25.709Z,69.65
2019-01-23T10:31:25.671Z,70.17
2019-01-23T10:32:25.661Z,68.92
2019-01-23T10:33:25.652Z,70.38
2019-01-23T10:34:25.719Z,69.93
2019-01-23T10:35:25.954Z,68.89
2019-01-23T10:36:25.626Z,67.95
2019-01-23T10:37:25.609Z,68.19
2019-01-23T10:38:25.595Z,70.17
2019-01-23T10:39:25.584Z,70.14
2019-01-23T10:40:25.575Z,68.19
2019-01-23T10:41:25.596Z,68.99
2019-01-23T10:42:25.563Z,69.44
2019-01-23T10:43:25.543Z,68.95
2019-01-23T10:44:25.550Z,69.58
2019-01-23T10:45:25.519Z,70.20
2019-01-23T10:46:25.533Z,70.20
2019-01-23T10:47:25.505Z,70.10
2019-01-23T10:48:25.505Z,70.83
2019-01-23T10:49:25.476Z,69.26
2019-01-23T10:50:25.467Z,69.61
2019-01-23T10:51:25.517Z,71.04
2019-01-23T10:52:25.463Z,70.38
2019-01-23T10:53:25.447Z,69.86
2019-01-23T10:54:25.425Z,69.23
2019-01-23T10:55:25.424Z,68.60
2019-01-23T10:56:25.445Z,69.40
2019-01-23T10:57:25.409Z,68.35
2019-01-23T10:58:25.388Z,69.92
2019-01-23T10:59:25.369Z,70.55
2019-01-23T11:00:25.407Z,70.20
2019-01-23T11:01:25.372Z,70.17
2019-01-23T11:02:25.346Z,69.72
2019-01-23T11:03:25.327Z,68.65
2019-01-23T11:04:25.314Z,67.99
2019-01-23T11:05:25.331Z,68.03
2019-01-23T11:06:25.341Z,66.26
2019-01-23T11:07:25.311Z,65.74
2019-01-23T11:08:25.294Z,64.42
2019-01-23T11:09:25.418Z,65.94
2019-01-23T11:10:25.256Z,65.91
2019-01-23T11:11:25.266Z,66.69
2019-01-23T11:12:25.273Z,66.80
2019-01-23T11:13:25.245Z,66.94
2019-01-23T11:14:25.210Z,69.10
2019-01-23T11:15:25.194Z,67.46
2019-01-23T11:16:25.210Z,67.98
2019-01-23T11:17:25.178Z,68.92
2019-01-23T11:18:25.294Z,67.49
2019-01-23T11:19:25.153Z,68.53
2019-01-23T11:20:25.180Z,69.37
2019-01-23T11:21:25.175Z,69.76
2019-01-23T11:22:25.258Z,69.34
2019-01-23T11:23:25.115Z,69.34
2019-01-23T11:24:25.094Z,68.71
2019-01-23T11:25:25.091Z,68.92
2019-01-23T11:26:25.100Z,70.31
2019-01-23T11:27:25.060Z,69.86
2019-01-23T11:28:25.052Z,69.23
2019-01-23T11:29:25.046Z,68.82
2019-01-23T11:30:25.039Z,68.19
2019-01-23T11:31:25.046Z,69.72
2019-01-23T11:32:25.035Z,69.59
2019-01-23T11:33:24.994Z,68.41
2019-01-23T11:34:24.987Z,66.25
2019-01-23T11:35:24.987Z,67.01
2019-01-23T11:36:24.987Z,69.38
2019-01-23T11:37:24.963Z,67.85
2019-01-23T11:38:24.939Z,67.66
2019-01-23T11:39:24.928Z,68.37
2019-01-23T11:40:24.918Z,68.75
2019-01-23T11:41:24.932Z,67.16
2019-01-23T11:42:24.895Z,66.35
2019-01-23T11:43:24.894Z,66.49
2019-01-23T11:44:24.895Z,66.80
2019-01-23T11:45:24.862Z,68.16
2019-01-23T11:46:24.896Z,68.37
2019-01-23T11:47:24.840Z,67.74
2019-01-23T11:48:24.831Z,67.14
2019-01-23T11:49:24.837Z,67.91
2019-01-23T11:50:24.816Z,68.82
2019-01-23T11:51:24.840Z,68.19
2019-01-23T11:52:24.857Z,67.74
2019-01-23T11:53:24.775Z,67.22
2019-01-23T11:54:24.763Z,67.74
2019-01-23T11:55:24.758Z,67.11
2019-01-23T11:56:24.744Z,66.52
2019-01-23T11:57:24.760Z,68.08
2019-01-23T11:58:24.726Z,67.95
2019-01-23T11:59:25.369Z,68.13
2019-01-23T12:00:24.697Z,67.11
2019-01-23T12:01:27.717Z,67.63
2019-01-23T12:02:30.613Z,67.63
2019-01-23T12:03:25.684Z,67.40
2019-01-23T12:04:24.667Z,67.19
2019-01-23T12:05:24.642Z,67.08
2019-01-23T12:06:24.632Z,66.66
2019-01-23T12:07:24.644Z,66.80
2019-01-23T12:08:24.609Z,68.08
2019-01-23T12:09:24.599Z,68.78
2019-01-23T12:10:24.601Z,68.99
2019-01-23T12:11:24.578Z,66.80
2019-01-23T12:12:24.590Z,67.46
2019-01-23T12:13:24.558Z,68.37
2019-01-23T12:14:24.549Z,68.33
2019-01-23T12:15:24.537Z,67.22
2019-01-23T12:16:24.527Z,67.71
2019-01-23T12:17:24.542Z,67.08
2019-01-23T12:18:24.516Z,68.54
2019-01-23T12:19:24.491Z,67.99
2019-01-23T12:20:24.480Z,68.51
2019-01-23T12:21:24.468Z,65.95
2019-01-23T12:22:24.482Z,66.47
2019-01-23T12:23:24.448Z,66.39
2019-01-23T12:24:24.804Z,64.97
2019-01-23T12:25:24.428Z,67.19
2019-01-23T12:26:24.418Z,68.13
2019-01-23T12:27:24.428Z,67.71
2019-01-23T12:28:24.395Z,68.30
2019-01-23T12:29:24.382Z,67.68
2019-01-23T12:30:24.374Z,66.88
2019-01-23T12:31:24.364Z,67.95
2019-01-23T12:32:24.375Z,69.20
2019-01-23T12:33:24.339Z,68.65
2019-01-23T12:34:24.326Z,68.23
2019-01-23T12:35:24.316Z,66.88
2019-01-23T12:36:24.305Z,68.02
2019-01-23T12:37:24.327Z,67.74
2019-01-23T12:38:24.287Z,68.44
2019-01-23T12:39:24.272Z,68.89
2019-01-23T12:40:24.259Z,68.08
2019-01-23T12:41:24.253Z,69.34
2019-01-23T12:42:24.263Z,69.13
2019-01-23T12:43:24.232Z,68.82
2019-01-23T12:44:24.215Z,69.23
2019-01-23T12:45:24.207Z,69.65
2019-01-23T12:46:24.254Z,69.23
2019-01-23T12:47:24.308Z,69.51
2019-01-23T12:48:24.174Z,68.89
2019-01-23T12:49:24.214Z,68.19
2019-01-23T12:50:24.151Z,69.76
2019-01-23T12:51:24.142Z,69.41
2019-01-23T12:52:24.178Z,68.92